x

South Hatteras - 225 South Of Cape Hatteras (41002) Wave Buoy

3:50 - Mon 25th Sep 2017 All times are EDT. -4 hours from GMT.

  • Sig Wave height 22.6ft
  • Swell Direction
  • Peak Period 10s
  • Average Period 9s
  • Wind
    43mph, 56mph gusts
  • Sea Temp 81°f
  • Luft Temp 80°f
  • Sea Pressure 993.7mb
  • South Hatteras - 225 South Of Cape Hatteras
  • South Hatteras - 225 South Of Cape Hatteras

More Historic Weather Station data

Upgrade to MSW Pro to gain access to the past 30 days of data for over 8000 Wavebouys and Weather Stations around the globe.

Join

Comparision Forecast

View Surf forecast
   
Mo 09/25 3:50 22.5ft 10s 9s 43 56 mph 993.7mb 81f 80f
2:50 22.5ft 11s 8s 43 49 mph 994mb 81f 81f
1:50 21.5ft 12s 9s 45 58 mph 994mb 81f 80f
12:50 21ft 10s 8s 43 54 mph 994.3mb 81f 81f
11:50 24ft 11s 9s 43 54 mph 995.1mb 81f 81f
10:50 22.5ft 13s 9s 40 54 mph 995.9mb 81f 80f
9:50 23.5ft 12s 9s 43 56 mph 996mb 81f 81f
8:50 24.5ft 13s 9s 40 51 mph 996.4mb 81f 82f
7:50 23.5ft 12s 9s 40 54 mph 996.4mb 81f 80f
6:50 23ft 10s 9s 38 45 mph 996.8mb 81f 79f
5:50 23ft 13s 9s 40 49 mph 996.9mb 80f 80f
4:50 23ft 10s 9s 40 49 mph 997.1mb 80f 80f
3:50 20.5ft 13s 8s 40 49 mph 997.3mb 80f 81f
2:50 21ft 12s 8s 38 45 mph 998.6mb 80f 81f
1:50 23.5ft 14s 9s 40 47 mph 999.4mb 80f 81f
So 09/24 11:50 21.5ft 9s 9s 34 43 mph 1001.8mb 80f 78f
10:50 19.5ft 14s 8s 36 45 mph 1002.3mb 80f 80f
9:50 19.5ft 14s 8s 38 49 mph 1002.7mb 80f 80f
8:50 19.5ft 11s 9s 36 45 mph 1003.3mb 81f 80f
7:50 21ft 11s 9s 36 45 mph 1003.8mb 81f 80f
6:50 22.5ft 15s 9s 36 43 mph 1004.1mb 81f 80f
5:50 21.5ft 13s 9s 34 43 mph 1004.5mb 81f 80f
4:50 22.5ft 15s 9s 34 43 mph 1005mb 80f 80f
3:50 21.5ft 15s 9s 34 40 mph 1005.2mb 80f 80f
2:50 20ft 15s 9s 34 40 mph 1006.3mb 80f 80f
1:50 19ft 15s 9s 31 40 mph 1006.6mb 80f 80f
12:50 19.5ft 15s 9s 31 40 mph 1007.7mb 80f 79f
11:50 17.5ft 15s 9s 29 36 mph 1008.8mb 80f 79f
10:50 17.5ft 15s 9s 29 36 mph 1009.2mb 79f 79f
9:50 16.5ft 14s 9s 29 36 mph 1009.4mb 79f 79f
8:50 15ft 14s 8s 29 36 mph 1009.6mb 79f 79f
7:50 15.5ft 14s 9s 27 34 mph 1010mb 79f 79f
6:50 14ft 13s 8s 27 36 mph 1009.8mb 79f 79f
5:50 14.5ft 15s 8s 27 31 mph 1009.9mb 79f 78f
4:50 13ft 11s 8s 27 31 mph 1009.8mb 79f 78f
3:50 15.5ft 13s 9s 25 29 mph 1010.3mb 80f 78f
2:50 15ft 14s 9s 25 29 mph 1010.7mb 80f 78f
1:50 15.5ft 12s 9s 25 29 mph 1011.3mb 80f 78f
12:50 15.5ft 14s 9s 22 27 mph 1012mb 80f 79f
Sa 09/23 11:50 15ft 14s 9s 25 29 mph 1012.4mb 80f 79f
10:50 15ft 14s 9s 25 29 mph 1012.7mb 80f 79f
9:50 14ft 14s 9s 25 31 mph 1012.9mb 80f 79f
8:50 13.5ft 14s 9s 25 29 mph 1013.3mb 79f 79f
7:50 12ft 13s 8s 25 29 mph 1013.1mb 80f 79f
6:50 12ft 14s 8s 22 29 mph 1013.3mb 80f 79f
5:50 10ft 15s 8s 25 29 mph 1013.1mb 80f 79f
4:50 10.5ft 12s 8s 20 25 mph 1013.3mb 80f 79f
3:50 11ft 15s 9s 20 25 mph 1013.6mb 80f 79f
2:50 10ft 15s 8s 20 22 mph 1013.9mb 79f 79f
1:50 9ft 13s 7s 20 25 mph 1014.2mb 79f 78f
12:50 8ft 14s 7s 20 25 mph 1014.4mb 79f 79f
11:50 9.5ft 11s 8s 20 22 mph 1014.8mb 79f 79f
10:50 9ft 11s 8s 18 20 mph 1014.6mb 79f 79f
9:50 9ft 14s 8s 20 22 mph 1014.5mb 79f 79f
8:50 10ft 13s 8s 20 22 mph 1014.3mb 79f 79f
7:50 9.5ft 12s 9s 16 18 mph 1014.4mb 79f 78f
6:50 10ft 12s 9s 16 18 mph 1013.9mb 79f 78f
5:50 10ft 13s 9s 16 18 mph 1013.8mb 79f 78f
4:50 10ft 11s 9s 16 20 mph 1013.6mb 79f 78f
3:50 9.5ft 11s 9s 16 18 mph 1013.7mb 79f 78f
2:50 10ft 11s 9s 13 18 mph 1014.3mb 79f 78f
1:50 10.5ft 13s 10s 13 16 mph 1014.5mb 79f 78f
12:50 10.5ft 13s 10s 16 18 mph 1014.9mb 79f 78f
Fr 09/22 11:50 9.5ft 12s 10s 13 18 mph 1015.2mb 80f 79f
10:50 10ft 13s 10s 13 18 mph 1015.1mb 80f 79f
9:50 10ft 13s 10s 13 16 mph 1015.1mb 80f 79f
8:50 9ft 14s 10s 13 16 mph 1014.9mb 80f 79f
7:50 8ft 11s 10s 13 16 mph 1014.7mb 80f 79f
6:50 9ft 14s 11s 11 13 mph 1014.6mb 80f 79f
5:50 7ft 12s 10s 11 13 mph 1014.5mb 80f 79f
4:50 7.5ft 13s 10s 2 4 mph 1015mb 81f 80f
3:50 7ft 11s 10s 4 9 mph 1015.1mb 81f 79f
2:50 6ft 11s 9s 7 7 mph 1015.4mb 81f 79f
1:50 5.5ft 12s 9s 7 9 mph 1015.7mb 82f 79f
12:50 6ft 12s 9s 7 9 mph 1016.5mb 82f 79f
11:50 6ft 11s 9s 4 7 mph 1017mb 80f 78f
10:50 5ft 11s 9s 4 7 mph 1017mb 80f 78f
9:50 5ft 11s 8s 7 9 mph 1016.7mb 80f 78f
8:50 5ft 11s 9s 4 4 mph 1016.8mb 80f 78f
7:50 5.5ft 10s 9s 2 4 mph 1016.5mb 80f 78f
6:50 5.5ft 10s 9s 2 4 mph 1016.3mb 80f 77f
5:50 6ft 11s 9s 2 4 mph 1015.5mb 80f 77f
4:50 5ft 11s 9s 2 4 mph 1015.5mb 80f 77f
3:50 5ft 11s 8s 2 2 mph 1015.3mb 80f 77f
2:50 5ft 11s 8s 2 4 mph 1015.4mb 80f 78f
1:50 5ft 10s 8s 2 4 mph 1016mb 81f 78f
12:50 5ft 11s 8s  -  2 mph 1016.5mb 81f 78f
Do 09/21 11:50 5ft 11s 9s 2 4 mph 1016.9mb 81f 78f
10:50 5ft 11s 9s 4 7 mph 1016.9mb 81f 78f
9:50 4.5ft 11s 8s 2 4 mph 1016.4mb 82f 79f
8:50 4.5ft 11s 8s  -  2 mph 1015.9mb 82f 79f